Time;durP1;ratioP1;P1;durP2;ratioP2;P2;SDS_P1;SDS_P2;PMS_P1;PMS_P2;Temp;Humidity;BMP_temperature;BMP_pressure;BME280_temperature;BME280_humidity;BME280_pressure;Samples;Min_cycle;Max_cycle;Signal;HPM_P1;HPM_P2
2021/03/11 00:00:09;;;;;;;2.92;1.45;;;20.80;35.00;;;;;;5096078;28;20500;-61
2021/03/11 00:02:35;;;;;;;3.47;1.40;;;20.80;34.90;;;;;;5095941;28;20016;-62
2021/03/11 00:05:00;;;;;;;5.30;1.70;;;20.70;35.10;;;;;;5096171;28;20032;-61
2021/03/11 00:07:26;;;;;;;3.53;1.65;;;20.70;35.00;;;;;;5095758;28;20028;-61
2021/03/11 00:09:52;;;;;;;3.92;1.50;;;20.70;35.00;;;;;;5095402;28;20084;-61
2021/03/11 00:12:17;;;;;;;2.78;1.40;;;20.70;35.00;;;;;;5095677;28;20032;-61
2021/03/11 00:14:43;;;;;;;3.35;1.50;;;20.70;35.00;;;;;;5095392;28;20084;-61
2021/03/11 00:17:09;;;;;;;3.47;1.60;;;20.70;35.00;;;;;;5095381;28;20106;-61
2021/03/11 00:19:35;;;;;;;2.95;1.23;;;20.70;35.00;;;;;;5095379;28;20130;-60
2021/03/11 00:22:01;;;;;;;1.95;1.10;;;20.70;35.10;;;;;;5096035;28;20027;-61
2021/03/11 00:24:26;;;;;;;4.05;1.33;;;20.70;35.10;;;;;;5096316;28;20506;-61
2021/03/11 00:26:52;;;;;;;3.38;1.20;;;20.70;35.10;;;;;;5096436;28;20052;-61
2021/03/11 00:29:19;;;;;;;2.15;1.30;;;20.70;35.10;;;;;;5096160;28;20040;-61
2021/03/11 00:31:44;;;;;;;2.72;1.30;;;20.70;35.00;;;;;;5094482;28;20494;-61
2021/03/11 00:34:11;;;;;;;3.67;1.50;;;20.70;35.00;;;;;;5095426;28;20028;-61
2021/03/11 00:36:37;;;;;;;2.83;1.30;;;20.60;35.10;;;;;;5095574;28;20044;-60
2021/03/11 00:39:04;;;;;;;3.42;1.40;;;20.60;35.10;;;;;;5095781;28;20039;-61
2021/03/11 00:41:30;;;;;;;2.67;1.30;;;20.60;35.10;;;;;;5096067;28;20024;-61
2021/03/11 00:43:55;;;;;;;3.22;1.45;;;20.60;35.10;;;;;;5095623;28;20103;-61
2021/03/11 00:46:21;;;;;;;3.67;1.60;;;20.60;35.10;;;;;;5095446;28;20016;-61
2021/03/11 00:48:46;;;;;;;3.38;1.30;;;20.60;35.10;;;;;;5095546;28;20036;-61
2021/03/11 00:51:12;;;;;;;3.17;1.50;;;20.60;35.10;;;;;;5095214;28;20073;-61
2021/03/11 00:53:37;;;;;;;4.32;1.65;;;20.60;35.10;;;;;;5096197;28;20127;-61
2021/03/11 00:56:03;;;;;;;3.67;1.45;;;20.60;35.10;;;;;;5095928;28;20013;-61
2021/03/11 00:58:29;;;;;;;4.43;1.63;;;20.60;35.10;;;;;;5095250;28;20035;-61
2021/03/11 01:00:54;;;;;;;2.80;1.35;;;20.60;35.10;;;;;;5095199;28;20032;-61
2021/03/11 01:03:21;;;;;;;3.15;1.58;;;20.60;35.20;;;;;;5095499;28;20031;-61
2021/03/11 01:05:46;;;;;;;3.90;1.48;;;20.50;35.10;;;;;;5095151;28;20418;-61
2021/03/11 01:08:12;;;;;;;3.88;1.38;;;20.50;35.20;;;;;;5095066;28;20028;-61
2021/03/11 01:10:38;;;;;;;3.35;1.55;;;20.60;35.20;;;;;;5094402;28;20475;-61
2021/03/11 01:13:04;;;;;;;2.78;1.25;;;20.50;35.20;;;;;;5094605;28;20026;-61
2021/03/11 01:15:40;;;;;;;4.65;1.35;;;20.50;35.20;;;;;;5094643;28;20032;-61
2021/03/11 01:18:07;;;;;;;3.05;1.40;;;20.50;35.20;;;;;;5094420;28;20054;-61
2021/03/11 01:20:33;;;;;;;3.33;1.58;;;20.50;35.30;;;;;;5094532;28;20081;-61
2021/03/11 01:22:59;;;;;;;3.50;1.30;;;20.50;35.20;;;;;;5094504;28;20460;-61
2021/03/11 01:25:25;;;;;;;2.40;1.15;;;20.50;35.30;;;;;;5094810;28;20024;-61
2021/03/11 01:27:50;;;;;;;3.47;1.55;;;20.50;35.30;;;;;;5094710;28;20077;-60
2021/03/11 01:30:17;;;;;;;4.25;1.58;;;20.50;35.30;;;;;;5094806;28;20043;-61
2021/03/11 01:32:42;;;;;;;4.35;1.30;;;20.50;35.40;;;;;;5096303;28;20020;-61
2021/03/11 01:35:08;;;;;;;2.53;1.20;;;20.50;35.30;;;;;;5094610;28;20039;-61
2021/03/11 01:37:34;;;;;;;3.72;1.52;;;20.50;35.30;;;;;;5093063;28;20391;-61
2021/03/11 01:39:59;;;;;;;2.60;1.35;;;20.50;35.30;;;;;;5094389;28;20028;-61
2021/03/11 01:42:25;;;;;;;4.20;1.60;;;20.50;35.40;;;;;;5094408;28;20036;-61
2021/03/11 01:44:50;;;;;;;3.38;1.48;;;20.40;35.30;;;;;;5094303;28;20130;-61
2021/03/11 01:47:16;;;;;;;3.80;1.40;;;20.40;35.40;;;;;;5094224;28;20012;-61
2021/03/11 01:49:42;;;;;;;2.92;1.33;;;20.40;35.40;;;;;;5094246;28;20036;-61
2021/03/11 01:52:08;;;;;;;3.10;1.60;;;20.40;35.40;;;;;;5094065;28;20103;-61
2021/03/11 01:54:34;;;;;;;3.15;1.40;;;20.40;35.40;;;;;;5094280;28;20043;-61
2021/03/11 01:57:00;;;;;;;2.42;1.13;;;20.50;35.40;;;;;;5094186;28;20031;-62
2021/03/11 01:59:27;;;;;;;3.65;1.60;;;20.40;35.40;;;;;;5094117;28;20092;-61
2021/03/11 02:01:53;;;;;;;3.08;1.45;;;20.40;35.50;;;;;;5094083;28;20024;-61
2021/03/11 02:04:18;;;;;;;3.03;1.30;;;20.40;35.40;;;;;;5093922;28;20031;-61
2021/03/11 02:06:44;;;;;;;3.80;1.83;;;20.40;35.50;;;;;;5093950;28;20028;-61
2021/03/11 02:09:09;;;;;;;4.03;1.45;;;20.40;35.50;;;;;;5093389;28;20040;-61
2021/03/11 02:11:40;;;;;;;2.63;1.35;;;20.40;35.50;;;;;;5093493;28;20375;-61
2021/03/11 02:14:18;;;;;;;2.90;1.20;;;20.40;35.40;;;;;;5094145;28;20078;-60
2021/03/11 02:16:51;;;;;;;2.63;1.30;;;20.30;35.50;;;;;;5093703;28;20028;-60
2021/03/11 02:19:54;;;;;;;2.35;1.33;;;20.30;35.50;;;;;;5093516;28;20052;-61
2021/03/11 02:22:39;;;;;;;2.67;1.27;;;20.30;35.50;;;;;;5093672;28;20024;-61
2021/03/11 02:25:06;;;;;;;;;;;20.30;35.50;;;;;;5094161;28;20020;-61
2021/03/11 02:27:37;;;;;;;3.85;1.40;;;20.40;35.50;;;;;;5094081;28;20348;-61
2021/03/11 02:30:04;;;;;;;2.72;1.30;;;20.30;35.50;;;;;;5093692;28;20036;-61
2021/03/11 02:32:32;;;;;;;4.20;1.63;;;20.40;35.60;;;;;;5093672;28;20059;-61
2021/03/11 02:35:00;;;;;;;2.70;1.38;;;20.40;35.60;;;;;;5093436;28;20415;-61
2021/03/11 02:37:34;;;;;;;3.35;1.55;;;20.30;35.50;;;;;;5093585;28;20532;-61
2021/03/11 02:40:23;;;;;;;2.50;1.40;;;20.30;35.50;;;;;;5093613;28;20032;-61
2021/03/11 02:42:51;;;;;;;3.03;1.40;;;20.30;35.60;;;;;;5093312;28;20506;-61
2021/03/11 02:45:21;;;;;;;2.95;1.50;;;20.30;35.50;;;;;;5093773;28;20016;-61
2021/03/11 02:47:47;;;;;;;1.70;1.05;;;20.30;35.60;;;;;;5094022;28;20028;-61
2021/03/11 02:50:13;;;;;;;3.97;1.40;;;20.40;35.50;;;;;;5093957;28;20039;-62
2021/03/11 02:52:40;;;;;;;3.30;1.52;;;20.30;35.60;;;;;;5093590;28;20490;-61
2021/03/11 02:55:07;;;;;;;2.38;1.30;;;20.30;35.50;;;;;;5093790;28;20082;-61
2021/03/11 02:57:36;;;;;;;3.03;1.30;;;20.30;35.50;;;;;;5093458;28;20492;-61
2021/03/11 03:00:05;;;;;;;1.98;1.10;;;20.30;35.60;;;;;;5093559;28;20026;-61
2021/03/11 03:02:32;;;;;;;2.72;1.20;;;20.30;35.50;;;;;;5093392;28;20028;-61
2021/03/11 03:04:58;;;;;;;2.85;1.25;;;20.30;35.50;;;;;;5093269;28;20024;-61
2021/03/11 03:07:25;;;;;;;2.58;1.20;;;20.30;35.50;;;;;;5093245;28;20028;-61
2021/03/11 03:09:53;;;;;;;2.83;1.25;;;20.30;35.50;;;;;;5093276;28;20097;-61
2021/03/11 03:12:21;;;;;;;2.78;1.20;;;20.30;35.60;;;;;;5093229;28;20020;-61
2021/03/11 03:14:49;;;;;;;2.05;1.10;;;20.30;35.50;;;;;;5093521;28;20035;-61
2021/03/11 03:17:16;;;;;;;4.20;1.42;;;20.30;35.50;;;;;;5093363;28;20059;-60
2021/03/11 03:19:43;;;;;;;4.63;1.40;;;20.30;35.60;;;;;;5093175;28;20063;-61
2021/03/11 03:22:10;;;;;;;2.35;1.00;;;20.20;35.60;;;;;;5096758;28;20017;-61
2021/03/11 03:24:36;;;;;;;2.78;1.35;;;20.30;35.50;;;;;;5095664;28;20028;-61
2021/03/11 03:27:02;;;;;;;2.20;1.00;;;20.30;35.60;;;;;;5096746;28;20357;-61
2021/03/11 03:29:27;;;;;;;1.23;0.75;;;20.30;35.60;;;;;;5096418;28;20028;-61
2021/03/11 03:31:53;;;;;;;2.47;1.13;;;20.30;35.50;;;;;;5096858;28;20398;-61
2021/03/11 03:34:19;;;;;;;2.13;0.90;;;20.30;35.60;;;;;;5096950;28;20028;-61
2021/03/11 03:36:44;;;;;;;2.08;0.95;;;20.30;35.60;;;;;;5096603;28;20020;-61
2021/03/11 03:39:10;;;;;;;4.75;1.33;;;20.30;35.60;;;;;;5097025;28;20032;-61
2021/03/11 03:41:40;;;;;;;3.88;1.30;;;20.30;35.60;;;;;;5096911;28;20491;-61
2021/03/11 03:44:08;;;;;;;2.90;1.05;;;20.30;35.60;;;;;;5096635;28;20085;-61
2021/03/11 03:46:34;;;;;;;1.25;0.82;;;20.20;35.60;;;;;;5096629;28;20059;-61
2021/03/11 03:49:02;;;;;;;2.15;1.17;;;20.20;35.70;;;;;;5096414;28;20450;-61
2021/03/11 03:51:31;;;;;;;1.63;0.85;;;20.30;35.70;;;;;;5096785;28;20024;-61
2021/03/11 03:54:01;;;;;;;1.83;1.02;;;20.20;35.70;;;;;;5096824;28;20021;-61
2021/03/11 03:56:37;;;;;;;1.80;0.90;;;20.20;35.60;;;;;;5096846;28;20078;-61
2021/03/11 03:59:10;;;;;;;2.53;1.17;;;20.20;35.70;;;;;;5096827;28;20081;-61
2021/03/11 04:01:38;;;;;;;2.92;1.10;;;20.20;35.70;;;;;;5096755;28;20027;-61
2021/03/11 04:04:06;;;;;;;2.53;1.00;;;20.20;35.70;;;;;;5096594;28;20020;-61
2021/03/11 04:06:33;;;;;;;2.20;1.05;;;20.20;35.70;;;;;;5097055;28;20031;-61
2021/03/11 04:09:01;;;;;;;1.92;1.00;;;20.20;35.70;;;;;;5096732;28;20552;-61
2021/03/11 04:11:27;;;;;;;2.97;1.20;;;20.20;35.80;;;;;;5096889;28;20124;-61
2021/03/11 04:13:54;;;;;;;3.00;1.20;;;20.20;35.70;;;;;;5095615;28;20384;-61
2021/03/11 04:16:21;;;;;;;2.53;1.00;;;20.20;35.80;;;;;;5097342;28;20379;-61
2021/03/11 04:18:50;;;;;;;1.98;1.08;;;20.20;35.80;;;;;;5105500;28;20108;-61
2021/03/11 04:21:15;;;;;;;3.28;1.27;;;20.20;35.80;;;;;;5099483;28;20027;-61
2021/03/11 04:23:43;;;;;;;2.33;1.10;;;20.20;35.80;;;;;;5096441;28;20048;-61
2021/03/11 04:26:09;;;;;;;2.53;1.10;;;20.20;35.80;;;;;;5096137;28;20088;-61
2021/03/11 04:28:35;;;;;;;2.15;1.35;;;20.20;35.80;;;;;;5096484;28;20062;-61
2021/03/11 04:31:01;;;;;;;1.50;0.82;;;20.20;35.80;;;;;;5095495;28;20039;-61
2021/03/11 04:33:28;;;;;;;2.65;1.10;;;20.20;35.90;;;;;;5096144;28;20020;-61
2021/03/11 04:35:54;;;;;;;2.20;1.08;;;20.20;35.80;;;;;;5096026;28;20381;-61
2021/03/11 04:38:20;;;;;;;3.25;0.98;;;20.20;35.80;;;;;;5095960;28;20043;-61
2021/03/11 04:40:46;;;;;;;2.30;0.93;;;20.10;35.90;;;;;;5095943;28;20419;-61
2021/03/11 04:43:12;;;;;;;1.33;0.85;;;20.20;35.80;;;;;;5096075;28;20073;-61
2021/03/11 04:45:39;;;;;;;3.13;0.98;;;20.10;35.90;;;;;;5096057;28;20058;-61
2021/03/11 04:48:06;;;;;;;2.35;1.05;;;20.20;35.90;;;;;;5095784;28;20085;-61
2021/03/11 04:50:32;;;;;;;2.42;0.90;;;20.20;35.90;;;;;;5096023;28;20452;-61
2021/03/11 04:52:58;;;;;;;2.33;0.80;;;20.20;35.90;;;;;;5096462;28;20048;-61
2021/03/11 04:55:24;;;;;;;3.17;1.15;;;20.20;35.90;;;;;;5095696;28;20492;-62
2021/03/11 04:57:52;;;;;;;2.25;1.02;;;20.20;35.90;;;;;;5095098;28;20020;-61
2021/03/11 05:00:18;;;;;;;2.42;0.90;;;20.10;35.90;;;;;;5094375;28;20028;-61
2021/03/11 05:02:46;;;;;;;2.95;1.23;;;20.20;35.90;;;;;;5094124;28;20191;-61
2021/03/11 05:05:19;;;;;;;1.90;0.93;;;20.10;36.00;;;;;;5094691;28;20084;-61
2021/03/11 05:07:45;;;;;;;1.83;0.90;;;20.10;36.00;;;;;;5094851;28;20077;-62
2021/03/11 05:10:10;;;;;;;2.10;1.00;;;20.10;36.00;;;;;;5094676;28;20394;-60
2021/03/11 05:12:36;;;;;;;2.05;0.70;;;20.10;35.90;;;;;;5095202;28;20020;-61
2021/03/11 05:15:01;;;;;;;2.55;1.00;;;20.10;35.90;;;;;;5095050;28;20111;-61
2021/03/11 05:17:27;;;;;;;3.08;1.00;;;20.20;35.90;;;;;;5094515;28;20016;-62
2021/03/11 05:19:52;;;;;;;2.17;0.90;;;20.20;35.80;;;;;;5094904;28;20036;-61
2021/03/11 05:22:18;;;;;;;2.17;0.98;;;20.20;35.80;;;;;;5095016;28;20094;-60
2021/03/11 05:24:44;;;;;;;1.85;0.85;;;20.30;35.80;;;;;;5094180;28;20517;-60
2021/03/11 05:27:09;;;;;;;2.20;1.00;;;20.30;35.80;;;;;;5095042;28;20024;-61
2021/03/11 05:29:35;;;;;;;2.95;1.00;;;20.30;35.70;;;;;;5094444;28;20100;-60
2021/03/11 05:32:00;;;;;;;1.98;0.90;;;20.40;35.70;;;;;;5094461;28;20021;-60
2021/03/11 05:34:26;;;;;;;1.60;0.80;;;20.40;35.70;;;;;;5094987;28;20556;-60
2021/03/11 05:36:51;;;;;;;1.92;1.00;;;20.40;35.70;;;;;;5095939;28;20025;-60
2021/03/11 05:39:17;;;;;;;1.92;1.00;;;20.50;35.70;;;;;;5095249;28;20035;-60
2021/03/11 05:41:44;;;;;;;2.33;0.93;;;20.50;35.70;;;;;;5094630;28;20028;-60
2021/03/11 05:44:10;;;;;;;2.28;0.90;;;20.50;35.60;;;;;;5093809;28;20080;-60
2021/03/11 05:46:39;;;;;;;1.88;0.88;;;20.50;35.60;;;;;;5094551;28;20107;-60
2021/03/11 05:49:07;;;;;;;1.83;0.93;;;20.50;35.60;;;;;;5094324;28;20502;-60
2021/03/11 05:51:33;;;;;;;2.47;0.88;;;20.60;35.60;;;;;;5094451;28;20036;-60
2021/03/11 05:54:00;;;;;;;1.17;0.75;;;20.60;35.60;;;;;;5094365;28;20020;-60
2021/03/11 05:56:26;;;;;;;4.03;1.10;;;20.60;35.60;;;;;;5094218;28;20461;-60
2021/03/11 05:58:54;;;;;;;1.70;0.93;;;20.60;35.50;;;;;;5094247;28;20104;-60
2021/03/11 06:01:21;;;;;;;3.25;0.98;;;20.70;35.50;;;;;;5094256;28;20038;-60
2021/03/11 06:03:47;;;;;;;2.17;0.82;;;20.70;35.50;;;;;;5094240;28;20475;-60
2021/03/11 06:06:14;;;;;;;1.30;0.70;;;20.70;35.60;;;;;;5094420;28;20099;-60
2021/03/11 06:08:40;;;;;;;1.52;0.73;;;20.70;35.50;;;;;;5094265;28;20028;-59
2021/03/11 06:11:07;;;;;;;2.80;1.05;;;20.70;35.50;;;;;;5094076;28;20023;-60
2021/03/11 06:13:33;;;;;;;1.95;0.82;;;20.80;35.50;;;;;;5094225;28;20112;-60
2021/03/11 06:16:06;;;;;;;2.97;0.90;;;20.70;35.50;;;;;;5094630;28;20035;-60
2021/03/11 06:18:32;;;;;;;1.87;0.90;;;20.80;35.50;;;;;;5093969;28;20126;-60
2021/03/11 06:21:00;;;;;;;2.17;0.88;;;20.80;35.50;;;;;;5093668;28;20162;-60
2021/03/11 06:23:26;;;;;;;1.73;0.70;;;20.80;35.50;;;;;;5093816;28;20044;-60
2021/03/11 06:25:53;;;;;;;1.92;0.80;;;20.90;35.40;;;;;;5093757;28;20055;-60
2021/03/11 06:28:45;;;;;;;1.58;0.93;;;20.90;35.40;;;;;;5094327;28;20028;-60
2021/03/11 06:31:33;;;;;;;1.60;0.75;;;20.90;35.40;;;;;;5093834;28;20399;-60
2021/03/11 06:33:59;;;;;;;1.35;0.82;;;20.90;35.40;;;;;;5093838;28;20040;-60
2021/03/11 06:36:30;;;;;;;1.55;0.82;;;21.00;35.40;;;;;;5093826;28;20032;-60
2021/03/11 06:39:00;;;;;;;1.85;0.90;;;21.00;35.40;;;;;;5094143;28;20024;-60
2021/03/11 06:41:43;;;;;;;1.65;0.70;;;21.00;35.40;;;;;;5093628;28;20027;-60
2021/03/11 06:44:08;;;;;;;2.20;0.80;;;21.00;35.40;;;;;;5093668;28;20016;-60
2021/03/11 06:46:33;;;;;;;1.58;0.70;;;21.00;35.40;;;;;;5094032;28;20415;-60
2021/03/11 06:49:11;;;;;;;1.73;0.82;;;21.00;35.40;;;;;;5093667;28;20483;-60
2021/03/11 06:51:38;;;;;;;1.25;0.68;;;21.00;35.40;;;;;;5093267;28;20544;-60
2021/03/11 06:54:04;;;;;;;0.75;0.60;;;21.10;35.40;;;;;;5094494;28;20024;-61
2021/03/11 06:56:31;;;;;;;1.77;0.73;;;21.10;35.40;;;;;;5097807;28;20028;-60
2021/03/11 06:58:57;;;;;;;1.05;0.65;;;21.10;35.40;;;;;;5097877;28;20111;-60
2021/03/11 07:01:24;;;;;;;1.88;0.95;;;21.00;35.40;;;;;;5097031;28;20463;-60
2021/03/11 07:03:50;;;;;;;1.30;0.63;;;21.10;35.40;;;;;;5090356;28;20028;-60
2021/03/11 07:06:33;;;;;;;1.25;0.70;;;21.10;35.40;;;;;;5096488;28;20032;-59
2021/03/11 07:09:00;;;;;;;1.23;0.70;;;21.10;35.40;;;;;;5096659;28;20028;-60
2021/03/11 07:11:29;;;;;;;0.90;0.70;;;21.20;35.40;;;;;;5091130;28;20060;-59
2021/03/11 07:13:57;;;;;;;1.52;0.70;;;21.20;35.30;;;;;;5093574;28;20070;-59
2021/03/11 07:16:25;;;;;;;2.63;0.70;;;21.20;35.40;;;;;;5082617;28;20024;-59
2021/03/11 07:19:13;;;;;;;1.92;0.90;;;21.20;35.50;;;;;;5095081;28;20492;-59
2021/03/11 07:21:55;;;;;;;2.33;0.65;;;21.20;35.60;;;;;;5083158;28;20097;-59
2021/03/11 07:24:38;;;;;;;4.85;0.98;;;21.30;35.60;;;;;;5089358;28;20028;-59
2021/03/11 07:27:06;;;;;;;1.65;0.85;;;21.30;35.50;;;;;;5082794;28;20024;-59
2021/03/11 07:29:31;;;;;;;2.28;0.85;;;21.30;35.60;;;;;;5076549;28;20094;-61
2021/03/11 07:31:59;;;;;;;1.80;0.80;;;21.30;35.60;;;;;;5093540;28;20020;-60
2021/03/11 07:34:33;;;;;;;1.60;0.77;;;21.30;35.60;;;;;;5081392;28;20066;-59
2021/03/11 07:36:59;;;;;;;2.33;0.70;;;21.40;35.60;;;;;;5104053;28;20028;-59
2021/03/11 07:39:38;;;;;;;1.73;0.80;;;21.40;35.60;;;;;;5096880;28;20032;-59
2021/03/11 07:42:08;;;;;;;2.03;0.77;;;21.40;35.70;;;;;;5096258;28;20387;-59
2021/03/11 07:44:33;;;;;;;1.92;0.70;;;21.40;35.70;;;;;;5096968;28;20118;-59
2021/03/11 07:46:59;;;;;;;5.25;0.90;;;21.40;35.70;;;;;;5096771;28;20024;-59
2021/03/11 07:49:28;;;;;;;0.93;0.63;;;21.50;35.80;;;;;;5097317;28;20047;-60
2021/03/11 07:51:58;;;;;;;0.98;0.65;;;21.40;35.80;;;;;;5097746;28;20465;-59
2021/03/11 07:54:23;;;;;;;2.05;0.98;;;21.50;35.80;;;;;;5094530;28;20046;-60
2021/03/11 07:56:50;;;;;;;3.85;0.90;;;21.50;35.90;;;;;;5099723;28;20079;-59
2021/03/11 07:59:16;;;;;;;1.67;0.75;;;21.50;35.90;;;;;;5108029;28;20472;-59
2021/03/11 08:01:52;;;;;;;2.25;0.70;;;21.50;35.90;;;;;;5107013;28;20487;-59
2021/03/11 08:04:19;;;;;;;1.45;0.80;;;21.50;35.80;;;;;;5110846;28;20031;-59
2021/03/11 08:06:45;;;;;;;2.53;0.90;;;21.50;35.90;;;;;;5089799;28;20036;-59
2021/03/11 08:09:11;;;;;;;2.35;0.85;;;21.50;35.90;;;;;;5084769;28;20119;-60
2021/03/11 08:11:38;;;;;;;1.33;0.75;;;21.50;35.90;;;;;;5102108;28;20494;-60
2021/03/11 08:14:21;;;;;;;0.90;0.60;;;21.50;35.90;;;;;;5095060;28;20031;-59
2021/03/11 08:16:47;;;;;;;1.92;0.80;;;21.60;35.80;;;;;;5096404;28;20024;-60
2021/03/11 08:19:42;;;;;;;1.02;0.60;;;21.60;35.80;;;;;;5091795;28;20197;-59
2021/03/11 08:22:07;;;;;;;2.25;0.90;;;21.60;35.90;;;;;;5086420;28;20035;-59
2021/03/11 08:24:45;;;;;;;1.25;0.75;;;21.60;35.90;;;;;;5105048;28;20035;-59
2021/03/11 08:27:30;;;;;;;2.15;0.80;;;21.70;35.90;;;;;;5078821;28;20036;-60
2021/03/11 08:29:59;;;;;;;1.42;0.68;;;21.60;35.90;;;;;;5089866;28;20089;-60
2021/03/11 08:32:47;;;;;;;2.25;0.70;;;21.70;35.90;;;;;;5094195;28;20119;-59
2021/03/11 08:35:28;;;;;;;5.13;1.00;;;21.70;35.90;;;;;;5095401;28;20027;-59
2021/03/11 08:37:56;;;;;;;2.35;0.68;;;21.70;36.00;;;;;;5095551;28;20111;-59
2021/03/11 08:40:38;;;;;;;1.75;0.82;;;21.70;36.00;;;;;;5094483;28;20031;-59
2021/03/11 08:43:04;;;;;;;1.48;0.70;;;21.70;36.00;;;;;;5095653;28;20031;-59
2021/03/11 08:45:36;;;;;;;1.00;0.70;;;21.70;36.00;;;;;;5096363;28;20024;-59
2021/03/11 08:48:18;;;;;;;1.73;0.70;;;21.70;35.90;;;;;;5096263;28;20039;-59
2021/03/11 08:50:46;;;;;;;1.65;0.75;;;21.70;36.00;;;;;;5095415;28;20060;-60
2021/03/11 08:53:12;;;;;;;1.55;0.75;;;21.70;36.00;;;;;;5095685;28;20051;-59
2021/03/11 08:55:41;;;;;;;1.80;0.80;;;21.70;35.90;;;;;;5095616;28;20028;-59
2021/03/11 08:58:26;;;;;;;1.83;0.77;;;21.70;35.90;;;;;;5095581;28;20037;-60
2021/03/11 09:01:01;;;;;;;3.03;0.70;;;21.80;35.90;;;;;;5095078;28;20078;-59
2021/03/11 09:03:39;;;;;;;1.75;0.88;;;21.80;35.90;;;;;;5095472;28;20024;-59
2021/03/11 09:06:06;;;;;;;2.08;0.80;;;21.80;35.90;;;;;;5095253;28;20024;-59
2021/03/11 09:08:33;;;;;;;1.48;0.80;;;21.80;35.90;;;;;;5095467;28;20035;-59
2021/03/11 09:11:10;;;;;;;1.42;0.70;;;21.80;35.90;;;;;;5095188;28;20124;-59
2021/03/11 09:13:40;;;;;;;2.05;0.65;;;21.80;35.90;;;;;;5095696;28;20029;-59
2021/03/11 09:16:06;;;;;;;1.80;0.70;;;21.80;35.90;;;;;;5093788;28;20629;-61
2021/03/11 09:18:32;;;;;;;1.38;0.70;;;21.80;35.90;;;;;;5093300;28;20441;-60
2021/03/11 09:20:59;;;;;;;1.88;0.60;;;21.90;35.90;;;;;;5093567;28;20020;-59
2021/03/11 09:23:33;;;;;;;1.85;0.70;;;21.80;35.90;;;;;;5095325;28;20020;-60
2021/03/11 09:25:58;;;;;;;2.00;0.93;;;21.80;35.90;;;;;;5095478;28;20484;-60
2021/03/11 09:28:25;;;;;;;1.10;0.80;;;21.80;35.90;;;;;;5095527;28;20032;-60
2021/03/11 09:30:51;;;;;;;1.67;0.68;;;21.80;35.80;;;;;;5095541;28;20035;-60
2021/03/11 09:33:18;;;;;;;0.75;0.50;;;21.90;35.90;;;;;;5098278;28;20074;-60
2021/03/11 09:35:44;;;;;;;1.50;0.85;;;21.80;35.90;;;;;;5096186;28;20039;-60
2021/03/11 09:38:13;;;;;;;1.15;0.60;;;21.90;35.90;;;;;;5093616;28;20020;-60
2021/03/11 09:40:45;;;;;;;1.70;0.85;;;21.90;35.90;;;;;;5093647;28;20032;-60
2021/03/11 09:43:33;;;;;;;1.00;0.55;;;21.90;35.90;;;;;;5093472;28;20555;-60
2021/03/11 09:45:59;;;;;;;2.53;0.70;;;21.90;35.80;;;;;;5093508;28;20533;-60
2021/03/11 09:48:31;;;;;;;1.48;0.60;;;21.90;35.80;;;;;;5093524;28;20056;-60
2021/03/11 09:51:03;;;;;;;2.45;0.75;;;21.90;35.80;;;;;;5093462;28;20106;-60
2021/03/11 09:53:35;;;;;;;3.35;0.80;;;21.90;35.90;;;;;;5093543;28;20464;-60
2021/03/11 09:56:01;;;;;;;0.57;0.47;;;21.90;35.90;;;;;;5093843;28;20172;-60
2021/03/11 09:58:27;;;;;;;1.20;0.70;;;21.90;35.80;;;;;;5093483;28;20030;-60
2021/03/11 10:00:53;;;;;;;2.90;0.80;;;22.00;35.80;;;;;;5093771;28;20085;-60
2021/03/11 10:03:24;;;;;;;1.65;0.82;;;22.00;35.70;;;;;;5093263;28;20020;-61
2021/03/11 10:06:00;;;;;;;3.30;0.80;;;22.00;35.80;;;;;;5093363;28;20054;-60
2021/03/11 10:08:38;;;;;;;1.92;0.93;;;22.00;35.70;;;;;;5093338;28;20099;-60
2021/03/11 10:11:18;;;;;;;1.85;0.60;;;22.00;35.60;;;;;;5093229;28;20028;-60
2021/03/11 10:13:48;;;;;;;1.10;0.60;;;22.00;35.60;;;;;;5093950;28;20115;-60
2021/03/11 10:16:18;;;;;;;2.40;1.10;;;22.00;35.50;;;;;;5093564;28;20497;-60
2021/03/11 10:19:04;;;;;;;2.83;1.00;;;22.10;35.50;;;;;;5093615;28;20040;-59
2021/03/11 10:21:32;;;;;;;1.38;0.60;;;22.10;35.40;;;;;;5093965;28;20464;-61
2021/03/11 10:23:58;;;;;;;1.70;0.50;;;22.10;35.40;;;;;;5093533;28;20140;-60
2021/03/11 10:26:26;;;;;;;2.05;0.73;;;22.20;35.40;;;;;;5093768;28;20020;-59
2021/03/11 10:29:00;;;;;;;1.45;0.60;;;22.20;35.30;;;;;;5093488;28;20055;-60
2021/03/11 10:31:26;;;;;;;1.50;0.82;;;22.20;35.30;;;;;;5094046;28;20028;-61
2021/03/11 10:34:08;;;;;;;1.38;0.68;;;22.30;35.20;;;;;;5093899;28;20039;-60
2021/03/11 10:36:36;;;;;;;1.60;0.73;;;22.20;35.30;;;;;;5094889;28;20020;-60
2021/03/11 10:39:10;;;;;;;1.08;0.57;;;22.30;35.30;;;;;;5094444;28;20020;-60
2021/03/11 10:41:38;;;;;;;2.25;0.80;;;22.30;35.20;;;;;;5097226;28;20032;-60
2021/03/11 10:44:12;;;;;;;3.22;0.85;;;22.30;35.20;;;;;;5097005;28;20033;-60
2021/03/11 10:46:38;;;;;;;;;;;22.30;35.20;;;;;;5095061;28;20032;-60
2021/03/11 10:49:04;;;;;;;1.45;0.70;;;22.20;35.30;;;;;;5093232;28;19919;-60
2021/03/11 10:51:32;;;;;;;1.75;0.77;;;22.20;35.40;;;;;;5093113;28;20348;-60
2021/03/11 10:53:59;;;;;;;2.47;0.90;;;22.20;35.30;;;;;;5094170;28;20034;-60
2021/03/11 10:56:25;;;;;;;3.33;0.93;;;22.10;35.40;;;;;;5094064;28;20031;-60
2021/03/11 10:59:00;;;;;;;3.22;0.80;;;22.20;35.30;;;;;;5093808;28;20027;-60
2021/03/11 11:01:27;;;;;;;3.85;1.45;;;22.20;35.30;;;;;;5093200;28;20032;-59
2021/03/11 11:03:54;;;;;;;1.02;0.50;;;22.20;35.30;;;;;;5093366;28;20046;-60
2021/03/11 11:06:23;;;;;;;1.83;0.60;;;22.20;35.20;;;;;;5093586;28;20081;-60
2021/03/11 11:08:49;;;;;;;2.45;0.85;;;22.20;35.20;;;;;;5093070;28;20025;-59
2021/03/11 11:11:17;;;;;;;2.90;0.68;;;22.20;35.30;;;;;;5093036;28;20032;-60
2021/03/11 11:13:42;;;;;;;1.70;0.70;;;22.20;35.30;;;;;;5092070;28;20273;-60
2021/03/11 11:16:09;;;;;;;2.55;0.90;;;22.20;35.20;;;;;;5093215;28;20020;-60
2021/03/11 11:18:35;;;;;;;2.70;0.90;;;22.20;35.30;;;;;;5092947;28;20051;-60
2021/03/11 11:21:00;;;;;;;2.10;0.70;;;22.10;35.40;;;;;;5093407;28;20032;-60
2021/03/11 11:23:26;;;;;;;2.25;0.77;;;22.10;35.40;;;;;;5093652;28;20024;-59
2021/03/11 11:25:52;;;;;;;3.88;1.00;;;22.00;35.50;;;;;;5093566;28;20039;-60
2021/03/11 11:28:17;;;;;;;2.50;0.60;;;22.00;35.50;;;;;;5093397;28;20375;-60
2021/03/11 11:30:43;;;;;;;3.28;0.70;;;22.00;35.50;;;;;;5093152;28;20043;-60
2021/03/11 11:33:09;;;;;;;3.65;0.88;;;22.00;35.50;;;;;;5093544;28;20021;-60
2021/03/11 11:35:36;;;;;;;2.80;0.90;;;22.00;35.40;;;;;;5092069;28;20048;-59
2021/03/11 11:38:02;;;;;;;2.05;0.93;;;22.00;35.40;;;;;;5092531;28;20032;-60
2021/03/11 11:40:29;;;;;;;2.88;0.60;;;22.00;35.40;;;;;;5093004;28;20115;-60
2021/03/11 11:42:54;;;;;;;3.88;0.90;;;22.00;35.40;;;;;;5096818;28;20055;-60
2021/03/11 11:45:20;;;;;;;3.30;0.90;;;22.00;35.30;;;;;;5096775;28;20047;-60
2021/03/11 11:47:45;;;;;;;4.07;1.10;;;22.00;35.20;;;;;;5096919;28;20111;-61
2021/03/11 11:50:12;;;;;;;3.92;0.90;;;22.10;35.10;;;;;;5096555;28;20032;-61
2021/03/11 11:52:39;;;;;;;3.80;1.20;;;22.10;35.10;;;;;;5096283;28;20027;-61
2021/03/11 11:55:06;;;;;;;2.55;0.80;;;22.10;35.10;;;;;;5096497;28;20032;-59
2021/03/11 11:57:32;;;;;;;4.28;1.15;;;22.20;34.90;;;;;;5096125;28;20024;-61
2021/03/11 11:59:58;;;;;;;3.33;1.13;;;22.20;34.90;;;;;;5096677;28;20027;-59
2021/03/11 12:02:24;;;;;;;3.17;0.80;;;22.20;34.90;;;;;;5096701;28;20356;-59
2021/03/11 12:04:49;;;;;;;2.38;0.70;;;22.20;34.90;;;;;;5096409;28;20024;-59
2021/03/11 12:07:15;;;;;;;2.45;0.93;;;22.20;34.90;;;;;;5095912;28;20024;-59
2021/03/11 12:09:40;;;;;;;3.90;0.80;;;22.20;34.90;;;;;;5095779;28;20028;-59
2021/03/11 12:12:07;;;;;;;5.30;0.82;;;22.20;34.80;;;;;;5096155;28;20085;-59
2021/03/11 12:14:33;;;;;;;3.33;0.77;;;22.20;34.90;;;;;;5096053;28;20028;-59
2021/03/11 12:16:59;;;;;;;2.63;0.85;;;22.30;34.80;;;;;;5095613;28;20022;-61
2021/03/11 12:19:24;;;;;;;3.15;1.00;;;22.40;34.50;;;;;;5095481;28;20567;-60
2021/03/11 12:21:50;;;;;;;3.92;0.90;;;22.50;34.40;;;;;;5095876;28;20047;-59
2021/03/11 12:24:15;;;;;;;4.47;1.27;;;22.50;34.20;;;;;;5095558;28;20380;-59
2021/03/11 12:26:41;;;;;;;5.55;1.73;;;22.50;34.30;;;;;;5095550;28;20024;-60
2021/03/11 12:29:07;;;;;;;4.55;0.90;;;22.60;34.20;;;;;;5095527;28;20245;-59
2021/03/11 12:31:32;;;;;;;5.82;1.23;;;22.50;34.20;;;;;;5095640;28;20031;-59
2021/03/11 12:33:58;;;;;;;4.63;1.05;;;22.50;34.30;;;;;;5095311;28;20021;-59
2021/03/11 12:36:25;;;;;;;3.83;1.15;;;22.50;34.30;;;;;;5095124;28;20042;-59
2021/03/11 12:38:52;;;;;;;4.63;1.00;;;22.50;34.30;;;;;;5095699;28;20070;-59
2021/03/11 12:41:19;;;;;;;3.60;0.85;;;22.50;34.40;;;;;;5095260;28;20554;-59
2021/03/11 12:43:46;;;;;;;4.82;0.95;;;22.40;34.40;;;;;;5095636;28;20032;-59
2021/03/11 12:46:12;;;;;;;3.30;0.85;;;22.40;34.50;;;;;;5095396;28;20020;-59
2021/03/11 12:48:37;;;;;;;6.80;1.23;;;22.40;34.50;;;;;;5093785;28;20525;-60
2021/03/11 12:51:03;;;;;;;4.75;1.08;;;22.30;34.50;;;;;;5095147;28;20032;-59
2021/03/11 12:53:29;;;;;;;3.70;1.17;;;22.30;34.60;;;;;;5094556;28;20032;-59